Time;durP1;ratioP1;P1;durP2;ratioP2;P2;SDS_P1;SDS_P2;PMS_P1;PMS_P2;Temp;Humidity;BMP_temperature;BMP_pressure;BME280_temperature;BME280_humidity;BME280_pressure;Samples;Min_cycle;Max_cycle;Signal;HPM_P1;HPM_P2
2023/02/19 00:01:44;;;;;;;21.00;14.55;;;9.90;99.90;;;-144.05;91.89;56995.38;5036178;28;20414;-76
2023/02/19 00:04:21;;;;;;;22.58;16.25;;;9.90;99.90;;;-144.05;91.88;56967.78;5036976;28;20089;-77
2023/02/19 00:06:49;;;;;;;27.40;17.15;;;9.90;99.90;;;-144.05;91.58;56982.66;5036754;28;20041;-76
2023/02/19 00:09:18;;;;;;;25.05;17.02;;;10.00;99.90;;;-144.05;91.14;56972.03;5036143;28;20060;-77
2023/02/19 00:11:46;;;;;;;23.95;16.83;;;9.90;99.90;;;-144.05;91.68;57006.00;5018273;28;20487;-77
2023/02/19 00:14:20;;;;;;;31.42;19.45;;;10.00;99.90;;;-144.05;91.52;56967.78;5036224;28;20036;-77
2023/02/19 00:16:47;;;;;;;30.33;19.83;;;9.90;99.90;;;-144.05;92.08;56986.91;5036753;28;20546;-77
2023/02/19 00:19:18;;;;;;;34.78;20.58;;;9.90;99.90;;;-144.05;91.45;56997.50;5018184;28;20497;-77
2023/02/19 00:21:45;;;;;;;35.40;24.05;;;9.90;99.90;;;-144.05;91.63;56955.03;5037073;28;20072;-77
2023/02/19 00:24:14;;;;;;;37.28;22.92;;;10.00;99.90;;;-144.05;91.07;56993.25;5038651;28;20025;-78
2023/02/19 00:26:42;;;;;;;31.42;21.40;;;10.00;99.90;;;-144.05;91.27;56997.50;5018621;28;20105;-77
2023/02/19 00:29:17;;;;;;;35.22;24.02;;;10.00;99.90;;;-144.05;90.98;56993.25;5036019;28;20045;-77
2023/02/19 00:31:44;;;;;;;34.28;23.20;;;10.00;99.90;;;-144.05;90.49;56984.78;5035972;28;20064;-77
2023/02/19 00:34:12;;;;;;;38.35;24.73;;;10.00;99.90;;;-144.05;89.89;56963.53;5019427;28;20036;-78
2023/02/19 00:36:41;;;;;;;39.60;25.27;;;10.00;99.90;;;-144.05;90.72;56980.53;5035866;28;20033;-77
2023/02/19 00:39:11;;;;;;;39.10;24.60;;;9.90;99.90;;;-144.05;90.12;56972.03;5036492;28;20087;-77
2023/02/19 00:41:37;;;;;;;41.45;25.35;;;10.00;99.90;;;-144.05;89.99;56972.03;5035882;28;20026;-77
2023/02/19 00:44:09;;;;;;;39.25;24.92;;;9.90;99.90;;;-144.05;90.35;57001.75;5035553;28;20025;-78
2023/02/19 00:46:46;;;;;;;39.45;24.80;;;10.00;99.90;;;-144.05;90.70;56967.78;5035939;28;20483;-77
2023/02/19 00:49:21;;;;;;;37.92;24.98;;;10.00;99.90;;;-144.05;89.92;56982.66;5036255;28;20029;-77
2023/02/19 00:51:49;;;;;;;37.75;24.13;;;10.00;99.90;;;-144.05;90.67;56972.03;5035650;28;20044;-78
2023/02/19 00:54:16;;;;;;;38.92;25.83;;;10.00;99.90;;;-144.05;90.55;56980.53;5036036;28;20037;-78
2023/02/19 00:56:43;;;;;;;36.97;24.55;;;10.00;99.90;;;-144.05;90.13;56976.28;5036149;28;20040;-77
2023/02/19 00:59:10;;;;;;;40.47;25.75;;;10.00;99.90;;;-144.05;89.89;56984.78;5036054;28;20029;-77
2023/02/19 01:01:36;;;;;;;37.67;25.73;;;10.00;99.90;;;-144.05;90.00;56986.91;5034938;28;20508;-77
2023/02/19 01:04:02;;;;;;;40.55;27.63;;;9.90;99.90;;;-144.05;89.63;57006.00;5035562;28;20037;-77
2023/02/19 01:06:29;;;;;;;41.53;25.90;;;10.00;99.90;;;-144.05;89.51;56982.66;5034554;28;20463;-77
2023/02/19 01:08:55;;;;;;;43.28;26.88;;;10.00;99.90;;;-144.05;90.02;56997.50;5034622;28;20053;-77
2023/02/19 01:11:21;;;;;;;38.72;24.92;;;9.90;99.90;;;-144.05;90.47;56978.41;5034694;28;20025;-77
2023/02/19 01:13:47;;;;;;;37.05;25.58;;;10.00;99.90;;;-144.05;90.45;56986.91;5034699;28;20071;-76
2023/02/19 01:16:26;;;;;;;37.60;23.63;;;10.00;99.90;;;-144.05;90.06;56982.66;5016730;28;20481;-77
2023/02/19 01:18:53;;;;;;;31.88;21.92;;;9.90;99.90;;;-144.05;90.37;56974.16;5019978;28;20396;-76
2023/02/19 01:21:25;;;;;;;34.15;23.50;;;9.90;99.90;;;-144.05;90.08;56974.16;5036854;28;20048;-76
2023/02/19 01:23:53;;;;;;;33.28;22.20;;;9.90;99.90;;;-144.05;90.97;56997.50;5035354;28;20314;-79
2023/02/19 01:26:28;;;;;;;33.92;20.83;;;9.90;99.90;;;-144.05;90.39;56984.78;5036571;28;20026;-79
2023/02/19 01:28:54;;;;;;;32.10;20.60;;;9.90;99.90;;;-144.05;90.47;56989.00;5035784;28;20037;-80
2023/02/19 01:31:23;;;;;;;33.22;20.23;;;9.90;99.90;;;-144.05;90.66;56976.28;5017930;28;20041;-79
2023/02/19 01:33:56;;;;;;;29.88;19.45;;;9.90;99.90;;;-144.05;90.83;56972.03;5035558;28;20033;-79
2023/02/19 01:36:24;;;;;;;30.42;19.90;;;9.90;99.90;;;-144.05;90.78;56969.91;5035213;28;20036;-78
2023/02/19 01:38:50;;;;;;;30.48;21.10;;;9.90;99.90;;;-144.05;90.02;56978.41;5034778;28;20059;-79
2023/02/19 01:41:22;;;;;;;30.60;20.73;;;9.90;99.90;;;-144.05;90.80;56965.66;5035316;28;20064;-77
2023/02/19 01:44:11;;;;;;;32.55;21.40;;;9.90;99.90;;;-144.05;91.23;56969.91;5017433;28;20370;-79
2023/02/19 01:46:45;;;;;;;31.73;21.75;;;9.90;99.90;;;-144.05;90.45;56986.91;5034865;28;20021;-78
2023/02/19 01:49:29;;;;;;;33.28;21.13;;;9.90;99.90;;;-144.05;90.80;56967.78;5034853;28;20025;-78
2023/02/19 01:52:14;;;;;;;30.48;20.10;;;9.90;99.90;;;-144.05;91.22;56976.28;5035086;28;20021;-78
2023/02/19 01:54:45;;;;;;;33.83;22.20;;;9.90;99.90;;;-144.05;91.08;56993.25;5034831;28;20018;-78
2023/02/19 01:57:19;;;;;;;32.17;22.13;;;9.90;99.90;;;-144.05;90.66;56997.50;5034444;28;20033;-77
2023/02/19 01:59:54;;;;;;;35.42;23.08;;;9.90;99.90;;;-144.05;90.70;56984.78;5033875;28;20438;-78
2023/02/19 02:02:23;;;;;;;37.10;23.33;;;9.90;99.90;;;-144.05;90.78;56989.00;5033720;28;20029;-77
2023/02/19 02:04:51;;;;;;;41.25;23.40;;;9.90;99.90;;;-144.05;90.99;56984.78;5034311;28;20555;-79
2023/02/19 02:10:21;;;;;;;41.00;24.38;;;9.80;99.90;;;-144.05;92.03;56991.13;5034855;28;20206;-79
2023/02/19 02:12:57;;;;;;;42.80;25.13;;;9.90;99.90;;;-144.05;91.13;56984.78;5018874;28;20022;-79
2023/02/19 02:15:46;;;;;;;46.35;25.65;;;9.90;99.90;;;-144.05;91.39;56982.66;5035471;28;20033;-78
2023/02/19 02:18:55;;;;;;;41.58;24.77;;;9.90;99.90;;;-144.05;92.23;57010.25;5036506;28;20028;-78
2023/02/19 02:21:52;;;;;;;44.90;24.60;;;9.80;99.90;;;-144.05;91.86;56999.63;5038496;28;20041;-76
2023/02/19 02:24:39;;;;;;;42.35;23.52;;;9.90;99.90;;;-144.05;91.15;56997.50;5039207;28;20028;-79
2023/02/19 02:28:00;;;;;;;35.40;21.65;;;9.90;99.90;;;-144.05;91.33;56982.66;5021683;28;20030;-77
2023/02/19 02:30:51;;;;;;;34.90;21.20;;;9.90;99.90;;;-144.05;91.46;56993.25;5041411;28;20048;-78
2023/02/19 02:33:41;;;;;;;35.55;21.15;;;9.90;99.90;;;-144.05;91.32;56976.28;5031160;28;20037;-77
2023/02/19 02:36:17;;;;;;;37.40;22.98;;;9.90;99.90;;;-144.05;91.68;56997.50;5041619;28;20052;-77
2023/02/19 02:38:47;;;;;;;37.92;23.00;;;9.90;99.90;;;-144.05;91.81;56978.41;5041384;28;20044;-76
2023/02/19 02:41:15;;;;;;;35.80;23.25;;;9.90;99.90;;;-144.05;91.00;56967.78;5040724;28;20040;-78
2023/02/19 02:43:41;;;;;;;33.80;22.17;;;9.90;99.90;;;-144.05;90.92;56976.28;5040399;28;20025;-77
2023/02/19 02:46:20;;;;;;;42.15;23.15;;;9.90;99.90;;;-144.05;91.69;56989.00;5040185;28;20029;-78
2023/02/19 02:48:58;;;;;;;37.88;22.10;;;9.80;99.90;;;-144.05;90.87;56986.91;5041317;28;20018;-77
2023/02/19 02:51:33;;;;;;;38.97;22.65;;;9.80;99.90;;;-144.05;90.71;57006.00;5021367;28;20026;-77
2023/02/19 02:57:02;;;;;;;37.47;22.80;;;9.80;99.90;;;-144.05;90.69;56976.28;5039908;28;20035;-77
2023/02/19 02:59:38;;;;;;;39.70;24.70;;;9.80;99.90;;;-144.05;90.77;57006.00;5039610;28;20034;-78
2023/02/19 03:02:24;;;;;;;41.10;24.10;;;9.80;99.90;;;-144.05;90.12;57001.75;5039961;28;20401;-77
2023/02/19 03:08:10;;;;;;;36.08;19.58;;;9.80;99.90;;;-144.05;90.95;56997.50;5041118;28;20087;-79
2023/02/19 03:19:17;;;;;;;33.47;20.25;;;9.80;99.90;;;-144.05;90.94;56995.38;5023154;28;20029;-76
2023/02/19 03:20:50;;;;;;;39.22;23.60;;;9.80;99.90;;;-144.05;90.86;56976.28;5040883;28;20049;-77
2023/02/19 03:26:02;;;;;;;46.35;23.92;;;9.80;99.90;;;-144.05;90.24;56980.53;5040570;28;20089;-78
2023/02/19 03:26:12;;;;;;;48.90;25.65;;;9.80;99.90;;;-144.05;89.97;56976.28;5038711;28;20037;-79
2023/02/19 03:31:32;;;;;;;41.40;23.58;;;9.80;99.90;;;-144.05;89.91;56974.16;5039568;28;20029;-76
2023/02/19 03:34:08;;;;;;;43.35;23.85;;;9.80;99.90;;;-144.05;89.28;57008.13;5023450;28;20021;-78
2023/02/19 03:36:49;;;;;;;37.40;21.70;;;9.80;99.90;;;-144.05;88.83;56976.28;5040098;28;20437;-78
2023/02/19 03:39:22;;;;;;;43.17;22.13;;;9.80;99.90;;;-144.05;88.29;56976.28;5038732;28;20033;-79
2023/02/19 03:41:54;;;;;;;42.80;23.23;;;9.80;99.90;;;-144.05;88.76;56989.00;5038887;28;20041;-78
2023/02/19 03:44:40;;;;;;;38.85;21.95;;;9.80;99.90;;;-144.05;88.68;56980.53;5038871;28;20064;-78
2023/02/19 03:47:42;;;;;;;37.65;20.92;;;9.80;99.90;;;-144.05;89.51;57003.88;5037838;28;20037;-79
2023/02/19 03:50:23;;;;;;;37.72;20.80;;;9.80;99.90;;;-144.05;89.09;56972.03;5036646;28;20404;-77
2023/02/19 03:53:17;;;;;;;40.13;20.77;;;9.80;99.90;;;-144.05;89.34;57023.00;5018034;28;20029;-77
2023/02/19 03:56:10;;;;;;;30.52;19.73;;;9.70;99.90;;;-144.05;89.68;56980.53;5039157;28;20030;-79
2023/02/19 03:58:39;;;;;;;33.35;19.48;;;9.70;99.90;;;-144.05;89.91;57010.25;5038337;28;20030;-76
2023/02/19 04:01:33;;;;;;;38.08;19.52;;;9.70;99.90;;;-144.05;89.79;56982.66;5039321;28;20021;-77
2023/02/19 04:04:30;;;;;;;31.30;18.80;;;9.70;99.90;;;-144.05;88.75;56978.41;5039404;28;20029;-77
2023/02/19 04:06:57;;;;;;;29.90;18.50;;;9.70;99.90;;;-144.05;88.51;56982.66;5021383;28;20128;-77
2023/02/19 04:09:36;;;;;;;32.28;16.85;;;9.70;99.90;;;-144.05;88.71;57001.75;5038559;28;20388;-77
2023/02/19 04:12:05;;;;;;;26.60;15.95;;;9.70;99.90;;;-144.05;88.19;56972.03;5038777;28;20056;-77
2023/02/19 04:14:59;;;;;;;23.88;15.05;;;9.70;99.90;;;-144.05;88.30;57006.00;5038424;28;20063;-77
2023/02/19 04:17:51;;;;;;;29.05;14.05;;;9.60;99.90;;;-144.05;88.42;57003.88;5021958;28;20393;-78
2023/02/19 04:20:21;;;;;;;25.45;13.70;;;9.60;99.90;;;-144.05;88.27;56991.13;5038723;28;20477;-78
2023/02/19 04:22:47;;;;;;;24.58;14.07;;;9.60;99.90;;;-144.05;88.47;56993.25;5038901;28;20025;-79
2023/02/19 04:25:13;;;;;;;25.58;12.35;;;9.60;99.90;;;-144.05;88.50;57001.75;5020843;28;20030;-78
2023/02/19 04:27:40;;;;;;;25.63;13.32;;;9.60;99.90;;;-144.05;87.51;56986.91;5038453;28;20026;-77
2023/02/19 04:30:11;;;;;;;24.42;12.88;;;9.60;99.90;;;-144.05;87.35;56984.78;5037333;28;20052;-77
2023/02/19 04:32:37;;;;;;;29.48;16.77;;;9.50;99.90;;;-144.05;87.42;56997.50;5037043;28;20056;-77
2023/02/19 04:35:03;;;;;;;30.50;17.05;;;9.50;99.90;;;-144.05;87.62;56982.66;5038515;28;20373;-77
2023/02/19 04:37:29;;;;;;;28.60;16.38;;;9.50;99.90;;;-144.05;88.08;56974.16;5038687;28;20029;-79
2023/02/19 04:39:55;;;;;;;25.15;14.60;;;9.60;99.90;;;-144.05;87.88;56984.78;5038711;28;20030;-79
2023/02/19 04:42:21;;;;;;;29.13;15.43;;;9.60;99.90;;;-144.05;88.11;56995.38;5037650;28;20028;-79
2023/02/19 04:44:47;;;;;;;24.52;15.25;;;9.60;99.90;;;-144.05;87.17;56980.53;5039065;28;20181;-77
2023/02/19 04:47:16;;;;;;;29.02;14.55;;;9.60;99.90;;;-144.05;87.50;56982.66;5019859;28;20037;-77
2023/02/19 04:49:43;;;;;;;30.75;15.57;;;9.50;99.90;;;-144.05;87.00;56982.66;5037589;28;20392;-78
2023/02/19 04:52:09;;;;;;;31.88;15.88;;;9.50;99.90;;;-144.05;87.16;57003.88;5037563;28;20143;-77
2023/02/19 04:54:35;;;;;;;29.00;16.02;;;9.50;99.90;;;-144.05;86.99;56991.13;5037468;28;20120;-79
2023/02/19 04:57:01;;;;;;;28.70;15.10;;;9.50;99.90;;;-144.05;86.92;56984.78;5038087;28;20061;-76
2023/02/19 04:59:27;;;;;;;26.33;15.60;;;9.50;99.90;;;-144.05;87.10;56999.63;5019727;28;20086;-77
2023/02/19 05:01:53;;;;;;;25.98;15.45;;;9.50;99.90;;;-144.05;87.13;56999.63;5020377;28;20032;-76
2023/02/19 05:04:19;;;;;;;27.85;15.38;;;9.50;99.90;;;-144.05;87.25;56967.78;5038904;28;20026;-77
2023/02/19 05:06:45;;;;;;;28.30;15.23;;;9.50;99.90;;;-144.05;86.82;57006.00;5019599;28;20401;-78
2023/02/19 05:09:11;;;;;;;27.48;15.77;;;9.50;99.90;;;-144.05;86.59;56995.38;5037057;28;20507;-77
2023/02/19 05:11:37;;;;;;;29.98;16.35;;;9.50;99.90;;;-144.05;87.08;57003.88;5037878;28;20048;-76
2023/02/19 05:14:02;;;;;;;27.45;16.95;;;9.50;99.90;;;-144.05;87.14;56999.63;5036904;28;20032;-78
2023/02/19 05:16:28;;;;;;;35.95;18.15;;;9.40;99.90;;;-144.05;87.80;56995.38;5019929;28;20404;-77
2023/02/19 05:18:54;;;;;;;26.83;15.85;;;9.40;99.90;;;-144.05;88.46;56989.00;5037833;28;20111;-77
2023/02/19 05:21:20;;;;;;;23.80;15.32;;;9.40;99.90;;;-144.05;88.56;57001.75;5018815;28;20471;-78
2023/02/19 05:23:46;;;;;;;24.55;16.13;;;9.40;99.90;;;-144.05;88.05;57014.50;5036517;28;20040;-77
2023/02/19 05:26:20;;;;;;;31.23;16.83;;;9.40;99.90;;;-144.05;88.37;56982.66;5018840;28;20025;-78
2023/02/19 05:28:51;;;;;;;28.20;17.95;;;9.40;99.90;;;-144.05;88.00;57025.13;5035513;28;20105;-77
2023/02/19 05:31:19;;;;;;;32.80;19.25;;;9.30;99.90;;;-144.05;88.35;56980.53;5018314;28;20051;-77
2023/02/19 05:33:49;;;;;;;34.15;19.38;;;9.30;99.90;;;-144.05;88.64;56986.91;5018343;28;20021;-79
2023/02/19 05:36:17;;;;;;;31.95;18.77;;;9.30;99.90;;;-144.05;88.41;57016.63;5035463;28;20057;-79
2023/02/19 05:38:43;;;;;;;31.65;18.85;;;9.30;99.90;;;-144.05;88.34;56995.38;5016248;28;20079;-77
2023/02/19 05:41:29;;;;;;;28.67;17.80;;;9.30;99.90;;;-144.05;88.23;57006.00;5017286;28;20120;-77
2023/02/19 05:43:57;;;;;;;;;;;9.30;99.90;;;-144.05;87.87;57003.88;5035539;28;20164;-78
2023/02/19 05:46:28;;;;;;;27.67;16.25;;;9.20;99.90;;;-144.05;88.40;57001.75;5037044;28;19920;-77
2023/02/19 05:48:56;;;;;;;31.38;16.63;;;9.20;99.90;;;-144.05;88.05;56984.78;5036445;28;20072;-77
2023/02/19 05:51:25;;;;;;;27.90;17.27;;;9.30;99.90;;;-144.05;88.25;56972.03;5037428;28;20017;-78
2023/02/19 05:53:52;;;;;;;33.35;17.13;;;9.30;99.90;;;-144.05;87.22;57010.25;5041889;28;20030;-78
2023/02/19 05:56:37;;;;;;;27.65;16.77;;;9.30;99.90;;;-144.05;87.34;57001.75;5043746;28;20029;-77
2023/02/19 05:59:12;;;;;;;28.70;17.35;;;9.30;99.90;;;-144.05;86.99;56995.38;5042577;28;20435;-75
2023/02/19 06:01:38;;;;;;;28.00;17.08;;;9.30;99.90;;;-144.05;87.33;57012.38;5043835;28;20508;-78
2023/02/19 06:04:05;;;;;;;31.23;16.85;;;9.30;99.90;;;-144.05;86.51;56980.53;5044088;28;20038;-77
2023/02/19 06:06:31;;;;;;;26.10;17.73;;;9.30;99.90;;;-144.05;87.49;56995.38;5044033;28;20117;-80
2023/02/19 06:08:57;;;;;;;32.33;18.27;;;9.30;99.90;;;-144.05;87.10;56976.28;5044179;28;20466;-77
2023/02/19 06:11:24;;;;;;;32.50;18.55;;;9.30;99.90;;;-144.05;87.60;57010.25;5044553;28;20029;-78
2023/02/19 06:13:50;;;;;;;30.55;18.42;;;9.30;99.90;;;-144.05;87.35;56984.78;5044279;28;20029;-77
2023/02/19 06:16:17;;;;;;;27.30;16.92;;;9.30;99.90;;;-144.05;87.17;57001.75;5026368;28;20029;-77
2023/02/19 06:18:44;;;;;;;31.95;18.88;;;9.30;99.90;;;-144.05;87.21;57001.75;5044178;28;20484;-78
2023/02/19 06:21:11;;;;;;;30.85;16.75;;;9.30;99.90;;;-144.05;86.49;57008.13;5044006;28;20081;-76
2023/02/19 06:23:38;;;;;;;27.05;17.35;;;9.30;99.90;;;-144.05;87.02;56997.50;5026882;28;20093;-76
2023/02/19 06:26:21;;;;;;;34.40;16.50;;;9.30;99.90;;;-144.05;87.42;56997.50;5026537;28;20033;-77
2023/02/19 06:28:51;;;;;;;26.08;15.65;;;9.30;99.90;;;-144.05;86.92;56976.28;5045128;28;20028;-78
2023/02/19 06:31:20;;;;;;;23.02;15.82;;;9.30;99.90;;;-144.05;86.82;57006.00;5043040;28;20025;-77
2023/02/19 06:33:47;;;;;;;27.83;16.33;;;9.30;99.90;;;-144.05;87.85;57001.75;5043016;28;20053;-78
2023/02/19 06:36:19;;;;;;;26.90;15.43;;;9.20;99.90;;;-144.05;87.61;56984.78;5042809;28;20033;-77
2023/02/19 06:38:45;;;;;;;26.85;14.30;;;9.20;99.90;;;-144.05;87.61;56984.78;5043356;28;20037;-77
2023/02/19 06:41:13;;;;;;;22.65;14.32;;;9.20;99.90;;;-144.05;87.29;56980.53;5026759;28;20103;-77
2023/02/19 06:43:39;;;;;;;26.42;14.68;;;9.10;99.90;;;-144.05;87.43;57001.75;5043715;28;20120;-76
2023/02/19 06:46:07;;;;;;;33.63;17.48;;;9.10;99.90;;;-144.05;87.39;57027.25;5025145;28;20030;-78
2023/02/19 06:48:34;;;;;;;22.77;14.98;;;9.10;99.90;;;-144.05;87.62;57006.00;5025312;28;20029;-77
2023/02/19 06:51:00;;;;;;;29.80;17.50;;;9.10;99.90;;;-144.05;87.27;56999.63;5024112;28;20025;-78
2023/02/19 06:53:26;;;;;;;27.40;17.40;;;9.10;99.90;;;-144.05;87.39;56989.00;5025231;28;20097;-76
2023/02/19 06:56:03;;;;;;;26.00;16.13;;;9.10;99.90;;;-144.05;87.72;57006.00;5025919;28;20029;-77
2023/02/19 06:58:30;;;;;;;26.50;17.00;;;9.10;99.90;;;-144.05;86.94;56986.91;5043517;28;20087;-77
2023/02/19 07:00:56;;;;;;;27.17;17.40;;;9.10;99.90;;;-144.05;87.87;57001.75;5044641;28;20025;-79
2023/02/19 07:03:23;;;;;;;36.40;18.30;;;9.20;99.90;;;-144.05;88.20;56991.13;5027628;28;20037;-78
2023/02/19 07:05:49;;;;;;;25.40;16.30;;;9.10;99.90;;;-144.05;88.20;56972.03;5023391;28;20030;-75
2023/02/19 07:08:16;;;;;;;26.70;17.75;;;9.20;99.90;;;-144.05;88.40;56989.00;5042294;28;20025;-76
2023/02/19 07:10:43;;;;;;;31.77;18.30;;;9.20;99.90;;;-144.05;88.31;56989.00;5041805;28;20034;-77
2023/02/19 07:13:09;;;;;;;27.15;17.90;;;9.10;99.90;;;-144.05;88.23;56989.00;5041537;28;20032;-78
2023/02/19 07:15:35;;;;;;;24.55;16.77;;;9.20;99.90;;;-144.05;88.53;57003.88;5024039;28;20039;-79
2023/02/19 07:18:04;;;;;;;23.30;14.48;;;9.10;99.90;;;-144.05;88.46;56972.03;5042607;28;20462;-76
2023/02/19 07:20:29;;;;;;;26.73;15.60;;;9.20;99.90;;;-144.05;88.61;56991.13;5042799;28;20480;-77
2023/02/19 07:22:56;;;;;;;27.33;16.27;;;9.20;99.90;;;-144.05;88.55;56999.63;5023211;28;20075;-77
2023/02/19 07:25:22;;;;;;;26.23;15.73;;;9.20;99.90;;;-144.05;88.64;56995.38;5041750;28;20030;-78
2023/02/19 07:27:48;;;;;;;24.08;14.70;;;9.20;99.90;;;-144.05;88.42;57001.75;5041502;28;20029;-79
2023/02/19 07:30:14;;;;;;;22.00;14.25;;;9.20;99.90;;;-144.05;89.15;56999.63;5038721;28;20430;-77
2023/02/19 07:32:41;;;;;;;21.67;14.90;;;9.20;99.90;;;-144.05;89.52;56995.38;5037853;28;20025;-76
2023/02/19 07:35:07;;;;;;;21.83;14.70;;;9.10;99.90;;;-144.05;89.53;56989.00;5038938;28;20025;-78
2023/02/19 07:37:33;;;;;;;24.60;15.43;;;9.10;99.90;;;-144.05;89.05;57016.63;5040372;28;20089;-77
2023/02/19 07:39:59;;;;;;;23.38;14.13;;;9.10;99.90;;;-144.05;89.27;56989.00;5040155;28;20073;-79
2023/02/19 07:42:25;;;;;;;27.83;15.57;;;9.10;99.90;;;-144.05;89.06;56995.38;5041176;28;20481;-78
2023/02/19 07:44:51;;;;;;;27.60;15.07;;;9.10;99.90;;;-144.05;88.93;56972.03;5020924;28;20068;-76
2023/02/19 07:47:17;;;;;;;24.00;14.95;;;9.10;99.90;;;-144.05;89.35;56978.41;5038865;28;20026;-77
2023/02/19 07:49:43;;;;;;;24.75;14.60;;;9.10;99.90;;;-144.05;89.77;57008.13;5042175;28;20029;-79
2023/02/19 07:52:08;;;;;;;26.10;15.68;;;9.00;99.90;;;-144.05;89.75;57001.75;5020558;28;20056;-77
2023/02/19 07:54:34;;;;;;;27.20;15.43;;;9.00;99.90;;;-144.05;89.41;57012.38;5039393;28;20045;-76
2023/02/19 07:57:00;;;;;;;25.25;15.43;;;9.00;99.90;;;-144.05;89.67;56991.13;5039438;28;20405;-78
2023/02/19 07:59:26;;;;;;;24.20;16.23;;;9.00;99.90;;;-144.05;89.59;57001.75;5037313;28;20033;-77
2023/02/19 08:04:36;;;;;;;26.27;16.02;;;9.00;99.90;;;-144.05;89.32;56980.53;5035394;28;20067;-77
2023/02/19 08:07:04;;;;;;;30.83;20.30;;;9.00;99.90;;;-144.05;89.45;56991.13;5056978;22;20065;-79
2023/02/19 08:09:31;;;;;;;28.48;17.33;;;9.00;99.90;;;-144.05;90.37;56997.50;5036759;28;20449;-78
2023/02/19 08:14:41;;;;;;;24.33;16.05;;;9.00;99.90;;;-144.05;90.14;57001.75;5038084;28;20098;-78
2023/02/19 08:17:07;;;;;;;25.48;16.23;;;9.00;99.90;;;-144.05;90.36;56972.03;5015508;28;20026;-80
2023/02/19 08:19:33;;;;;;;29.17;17.02;;;9.00;99.90;;;-144.05;90.82;57006.00;5015559;28;20030;-78
2023/02/19 08:21:59;;;;;;;25.13;16.65;;;9.00;99.90;;;-144.05;90.25;56995.38;4997736;28;20029;-78
2023/02/19 08:24:24;;;;;;;25.00;16.02;;;9.00;99.90;;;-144.05;90.03;57018.75;5015053;28;20413;-78
2023/02/19 08:26:50;;;;;;;30.70;17.38;;;9.00;99.90;;;-144.05;90.36;56991.13;5015820;28;20116;-78
2023/02/19 08:29:16;;;;;;;23.88;15.93;;;9.00;99.90;;;-144.05;90.67;57001.75;5015857;28;20076;-78
2023/02/19 08:31:42;;;;;;;22.42;14.32;;;9.00;99.90;;;-144.05;90.18;56999.63;5018916;28;20026;-78
2023/02/19 08:34:08;;;;;;;27.02;14.52;;;9.10;99.90;;;-144.05;89.53;56999.63;5018699;28;20564;-80
2023/02/19 08:36:34;;;;;;;25.90;15.65;;;9.10;99.90;;;-144.05;89.73;56989.00;5016740;28;20049;-78
2023/02/19 08:39:00;;;;;;;21.33;13.38;;;9.10;99.90;;;-144.05;89.26;56984.78;5016188;28;20377;-77
2023/02/19 08:41:26;;;;;;;22.73;13.73;;;9.10;99.90;;;-144.05;89.35;57016.63;5016670;28;20458;-77
2023/02/19 08:43:51;;;;;;;22.25;13.27;;;9.20;99.90;;;-144.05;88.77;57001.75;5017930;28;20136;-77
2023/02/19 08:46:17;;;;;;;16.95;11.32;;;9.20;99.90;;;-144.05;88.04;56991.13;5019381;28;20403;-78
2023/02/19 08:48:43;;;;;;;21.70;11.52;;;9.30;99.90;;;-144.05;87.71;56963.53;5028695;28;20037;-76
2023/02/19 08:51:10;;;;;;;26.75;11.93;;;9.30;99.90;;;-144.05;87.95;56991.13;5037523;28;20041;-77
2023/02/19 08:53:39;;;;;;;19.77;12.63;;;9.30;99.90;;;-144.05;87.67;56997.50;5020453;28;20050;-77
2023/02/19 08:56:09;;;;;;;19.05;11.93;;;9.40;99.90;;;-144.05;87.01;56989.00;5018568;28;20061;-78
2023/02/19 08:58:36;;;;;;;18.70;11.93;;;9.40;99.90;;;-144.05;86.86;56986.91;4998885;28;20037;-79
2023/02/19 09:01:10;;;;;;;19.77;11.38;;;9.40;99.90;;;-144.05;87.20;56972.03;5001981;28;20045;-78
2023/02/19 09:03:36;;;;;;;16.70;11.10;;;9.40;99.90;;;-144.05;86.88;56991.13;5023718;28;20117;-77
2023/02/19 09:06:03;;;;;;;19.83;10.10;;;9.40;99.90;;;-144.05;87.30;56999.63;5005631;28;20061;-80
2023/02/19 09:08:28;;;;;;;24.42;12.20;;;9.40;99.90;;;-144.05;87.12;57012.38;5019359;28;20029;-80
2023/02/19 09:11:05;;;;;;;22.40;11.40;;;9.40;99.90;;;-144.05;86.51;57008.13;5030277;28;20056;-76
2023/02/19 09:13:32;;;;;;;17.35;12.00;;;9.40;99.90;;;-144.05;86.62;56997.50;5037315;28;20068;-76
2023/02/19 09:15:58;;;;;;;20.00;10.60;;;9.40;99.90;;;-144.05;86.24;56974.16;5037048;28;20076;-76
2023/02/19 09:18:24;;;;;;;23.13;11.43;;;9.50;99.90;;;-144.05;86.07;57001.75;5037108;28;20022;-76
2023/02/19 09:20:50;;;;;;;18.30;11.35;;;9.50;99.90;;;-144.05;86.80;56989.00;5037329;28;20034;-78
2023/02/19 09:23:16;;;;;;;20.95;11.38;;;9.40;99.90;;;-144.05;86.95;56991.13;5019676;28;20022;-78
2023/02/19 09:25:42;;;;;;;21.95;11.00;;;9.50;99.90;;;-144.05;86.67;56989.00;5030341;28;20124;-77
2023/02/19 09:28:08;;;;;;;22.60;11.73;;;9.50;99.90;;;-144.05;86.37;56991.13;5018570;28;20072;-76
2023/02/19 09:30:34;;;;;;;21.55;12.88;;;9.50;99.90;;;-144.05;85.73;56993.25;5036893;28;20057;-78
2023/02/19 09:33:00;;;;;;;22.20;12.80;;;9.50;99.90;;;-144.05;86.20;57027.25;5036836;28;20326;-77
2023/02/19 09:35:26;;;;;;;25.38;12.95;;;9.40;99.90;;;-144.05;87.07;56991.13;5017556;28;20029;-77
2023/02/19 09:37:52;;;;;;;20.75;13.38;;;9.40;99.90;;;-144.05;87.32;56989.00;5015299;28;20022;-80
2023/02/19 09:40:20;;;;;;;24.73;14.27;;;9.50;99.90;;;-144.05;86.56;57020.88;5008157;28;20026;-81
2023/02/19 09:42:49;;;;;;;20.05;14.23;;;9.50;99.90;;;-144.05;86.92;56976.28;5019456;28;20030;-78
2023/02/19 09:45:25;;;;;;;24.63;13.93;;;9.50;99.90;;;-144.05;86.17;56978.41;5014749;28;20026;-76
2023/02/19 09:47:57;;;;;;;24.67;14.13;;;9.50;99.90;;;-144.05;86.65;56997.50;5013918;28;20041;-79
2023/02/19 09:50:40;;;;;;;21.98;13.40;;;9.50;99.90;;;-144.05;86.56;56997.50;5015243;28;20124;-79
2023/02/19 09:53:25;;;;;;;23.52;12.68;;;9.60;99.90;;;-144.05;86.02;56997.50;5014131;28;20022;-79
2023/02/19 09:55:52;;;;;;;24.60;12.85;;;9.60;99.90;;;-144.05;86.44;56991.13;4997833;28;20396;-81
2023/02/19 09:58:49;;;;;;;24.23;13.68;;;9.60;99.90;;;-144.05;86.29;57003.88;4996022;28;20056;-78
2023/02/19 10:01:17;;;;;;;21.25;13.35;;;9.60;99.90;;;-144.05;86.24;56980.53;4997728;28;20054;-76
2023/02/19 10:03:47;;;;;;;20.15;12.20;;;9.60;99.90;;;-144.05;86.48;57006.00;5015946;28;20112;-82
2023/02/19 10:06:23;;;;;;;21.92;12.90;;;9.50;99.90;;;-144.05;86.42;57006.00;5017225;28;20516;-77
2023/02/19 10:09:21;;;;;;;20.98;11.05;;;9.60;99.90;;;-144.05;85.24;56989.00;5013528;28;20029;-77
2023/02/19 10:11:50;;;;;;;20.83;11.40;;;9.60;99.90;;;-144.05;85.66;56982.66;4995301;28;20378;-79
2023/02/19 10:14:42;;;;;;;19.05;11.27;;;9.70;99.90;;;-144.05;84.73;56991.13;5018179;28;20061;-79
2023/02/19 10:17:28;;;;;;;21.17;12.68;;;9.60;99.90;;;-144.05;85.43;57018.75;5018736;28;20026;-79
2023/02/19 10:19:57;;;;;;;25.08;12.45;;;9.60;99.90;;;-144.05;85.01;56999.63;4997616;28;20485;-76
2023/02/19 10:22:24;;;;;;;15.88;9.80;;;9.50;99.90;;;-144.05;85.91;56997.50;4997679;28;20041;-78
2023/02/19 10:24:55;;;;;;;18.30;10.80;;;9.60;99.90;;;-144.05;85.57;57010.25;4998290;28;20026;-78
2023/02/19 10:27:24;;;;;;;22.10;11.43;;;9.60;99.90;;;-144.05;85.09;56995.38;5022727;28;20057;-79
2023/02/19 10:29:54;;;;;;;16.08;10.75;;;9.60;99.90;;;-144.05;85.57;57018.75;5014927;28;20041;-78
2023/02/19 10:32:26;;;;;;;19.02;9.65;;;9.60;99.90;;;-144.05;85.24;56967.78;5014281;28;20026;-80
2023/02/19 10:35:15;;;;;;;17.85;10.60;;;9.60;99.90;;;-144.05;85.50;57003.88;4997362;28;20054;-79
2023/02/19 10:37:50;;;;;;;18.13;9.95;;;9.70;99.90;;;-144.05;85.37;56984.78;5013909;28;20030;-77
2023/02/19 10:40:42;;;;;;;18.50;10.07;;;9.70;99.90;;;-144.05;84.56;56999.63;5017776;28;20034;-80
2023/02/19 10:43:31;;;;;;;17.70;9.32;;;9.70;99.90;;;-144.05;84.49;56997.50;5017766;28;20575;-77